Create Custom Reports and Graphics: Custom Report

Northern Napa County Map

Map

15 Minute Data

Southern Napa County Map

Map

15 Minute Data

Napa County - East

Latest Observations

15 Minute Data | America/Los_Angeles
as of 2/16/20 9:58 PM PST
Station Date Time Temp (°F) Dew Pt (°F) RH (%) Wind Dir (°) Wind Spd (mph) Wind Gust (mph) Latest Rain (In) Daily Rain (In) Daily Min Temp (°F) Daily Max Temp (°F)
Pope Valley - Weeks Lake 2/16/20 2145 47.8   1.7 43.3   2.1 84   1 E | 91 1.1   0.6 3.3   0.9 0.00   0.00 0.00   0.00 36.8   5.1 68.7   1.0
Dollarhide - STS 2/16/20 2145 51.0   0.1 46.2   1.9 84   6 NE | 46 1.1   2.2 2.5   2.1 0.00   0.00 0.00   0.00 41.9   7.3 70.6   0.8
1AS Remote - STS 2/16/20 2145 43.5   1.5 42.1   0.5 94   4 WSW | 250 0.9   0.9 2.1   1.5 - - 36.7   4.5 70.5   0.0
17B Remote - STS 2/16/20 1700 66.1 48.4 53 - - - - - 43.5 71.3
18A Remote - STS 2/16/20 2145 42.9   1.2 41.3   0.1 94   4 - - - - - 36.7   5.6 71.1   1.3
Brown Estate-Lower Chiles Valley 2/16/20 2145 40.5   3.7 39.8   1.1 97   9 SSE | 157 0.3   0.5 2.1   0.4 0.00   0.00 0.00   0.00 37.9   6.6 68.3   0.2
Moss Creek Vineyard 2/16/20 2145 45.2   2.4 42.9   0.6 92   10 - - - 0.00   0.00 0.00   0.00 42.6   6.5 68.0   0.5
Max     51.0 46.2 97 - 1.1 3.3 0.00 0.00 42.6 71.1
Avg     45.2 42.6 91 - 0.8 2.5 0.00 - - -
Min     40.5 39.8 84 - 0.3 2.1 0.00 0.00 36.7 68.0

Napa County - Northern/Central

14 Stations

15 Minute Data | America/Los_Angeles
as of 2/16/20 9:58 PM PST
Station Date Time Temp (°F) RH (%) Dew Pt (°F) Wind Dir (°) Wind Spd (mph) Wind Gust (mph) Latest Rain (In) Daily Rain (In) Daily Min Temp (°F) Daily Max Temp (°F)
Calistoga 2/16/20 2145 48.1   0.7 89   17 45.0   6.3 - - - 0.00 0.00 39.2   3.4 68.5   0.5
St. Helena (TSH) 2/11/20 1000 70.9   4.7 16   5 22.4   2.3 NW | 308 4.4   0.5 15.6   6.4 0.00 0.00 60.8   22.3 71.6   3.6
Rutherford Hill - Estate 2/16/20 2145 51.3   2.4 84   34 46.7   11.2 SE | 136 1.1   0.3 3.3   0.4 0.00 0.00 46.5   4.2 70.3   1.8
Mee Lane - MKV 2/16/20 2145 46.7   0.3 93   3 44.8   0.6 WSW | 246 0.2   1.4 1.1   2.4 0.00 0.00 42.6   6.7 72.5   4.2
Rutherford - STS 2/16/20 2145 47.1   0.8 95   8 45.8   1.6 ESE | 117 1.1   0.1 2.2   0.7 0.00 0.00 41.6   6.1 71.4   2.2
Skellenger 2/16/20 2145 46.2   0.5 92   3 44.0   0.4 N | 0 0.0   1.3 0.0   3.7 0.00 0.00 40.9   6.8 69.8   3.4
To Kalon 2/16/20 2145 47.7   1.9 92   15 45.5   2.8 WNW | 290 0.6   1.6 1.8   2.3 0.00 0.00 40.4   4.2 71.8   4.3
Wappo Hill 2/16/20 2145 47.5   0.2 95   4 46.1   0.9 WNW | 292 1.6   0.2 3.3   1.8 0.00 0.00 39.9   3.1 69.9   3.0
Stags Leap District - Chimney Rock 2/16/20 2145 46.2   0.4 93   4 44.3   0.8 NNW | 335 0.3   1.6 1.5   1.8 0.00 0.00 37.8   2.2 69.8   0.7
Napa River Ranch 2/16/20 2145 46.5   0.4 96   3 45.4   0.3 SSW | 201 0.5   0.9 2.1   1.4 0.00 0.00 39.4   2.8 68.4   2.6
Truoak 2/16/20 2145 47.0   1.5 97   5 46.2   0.1 N | 0 0.0   0.0 0.0   0.0 0.00 0.00 39.9   2.0 70.6   3.5
Hunter Ranch 53 2/16/20 2145 46.0   1.4 93   0 44.1   1.3 NW | 311 0.7   0.4 2.8   0.0 0.00 0.00 38.2   1.3 70.2   3.0
Linda Vista 2/16/20 2145 46.7   1.5 94   4 45.0   0.3 W | 272 1.0   0.1 2.7   0.1 0.00 0.00 38.8   0.5 68.8   2.6
Napa River Vineyard, Ranch 29 2/16/20 2145 47.2   0.4 95   3 45.9   0.4 N | 351 0.2   1.0 1.3   0.7 0.00 0.00 38.5   2.0 68.6   0.4
Max     51.3 97 46.7 - 1.6 3.3 0.00 0.00 46.5 72.5
Avg     47.2 93 45.3 - 0.6 1.9 0.00 - - -
Min     46.0 84 44.0 - 0.0 0.0 0.00 0.00 37.8 68.4

Napa County - Southern

17 Stations

15 Minute Data | America/Los_Angeles
as of 2/16/20 9:58 PM PST
Station Date Time Temp (°F) RH (%) Dew Pt (°F) Wind Spd (mph) Wind Dir (°) Wind Gust (mph) Latest Rain (In) Daily Rain (In) Daily Min Temp (°F) Daily Max Temp (°F)
Mt. Veeder 2/16/20 2145 52.4   0.4 74   36 44.5   16.4 1.4   1.0 W | 274 3.3   0.7 0.00 0.00 45.1   1.6 62.9   0.9
Palmaz 300' 2/16/20 2145 46.7   1.7 95   9 45.4   0.8 1.0   0.3 E | 94 1.8   1.4 0.00 0.00 40.0   1.6 72.2   1.0
Palmaz 1200' 2/16/20 2145 46.1   0.0 93   6 44.3   1.8 3.7   1.7 E | 83 4.6   1.0 - - 40.2   1.6 64.0   1.8
Palmaz 1400' 2/16/20 2145 45.6   8.2 93   42 43.7   7.8 3.1   0.9 N | 0 5.4   0.2 0.00 0.00 44.6   5.1 62.2   0.2
Truchard Base 2/16/20 2145 48.7   2.1 100   12 48.7   1.3 1.8   1.4 NE | 54 4.5   3.3 0.00 0.00 43.7   2.2 67.7   0.8
Truchard Remote 2/16/20 2145 43.3   0.6 98   2 42.9   0.0 - - - - - 35.0   0.6 67.3   0.2
Toyon Base (Napa South) 2/16/20 2145 47.4   1.1 93   2 45.6   0.4 1.0   0.0 NNE | 30 3.1   0.8 0.00 0.00 40.9   1.1 67.0   0.6
Toyon Remote 1 2/16/20 2145 45.2   0.4 - - - - - - - 37.5   0.5 68.7   3.0
Toyon Remote 2 2/16/20 2145 43.1   0.8 - - - - - - - 34.7   0.9 67.2   0.4
Toyon Remote 3 2/16/20 2145 44.1   1.1 - - - - - - - 37.3   0.5 69.4   0.8
Saintsbury Winery 2/16/20 2130 47.5   1.4 98   6 47.0   0.2 1.6   0.5 NNE | 14 2.3   1.1 0.00 0.00 40.8   2.4 68.0   0.3
Napa-SE 2/16/20 2145 46.4   0.2 94   7 44.8   1.7 3.1   0.0 E | 97 4.6   0.4 0.00 0.00 38.8   0.9 67.8   0.2
Suscol Mtn 2/16/20 2145 52.9   0.8 80   13 47.1   3.8 8.6   2.8 NNW | 336 14.2   5.6 0.00 0.00 44.2   0.6 63.1   0.0
Napa-SE Upper 2/16/20 2145 50.6   1.7 90   18 47.8   4.0 1.0   0.6 NNW | 346 3.1   0.2 0.00 0.00 45.0   1.3 64.5   0.2
Stanly Ranch 45 2/16/20 2145 46.2   0.9 95   3 44.8   0.1 1.5   0.5 NNW | 328 2.6   0.5 0.00 0.00 40.3   0.4 67.1   2.0
Huichica Upper 2/16/20 2145 49.6   5.0 91   31 47.1   5.9 3.1   0.7 NNE | 15 4.6   0.5 - - 45.5   2.5 65.0   1.3
Huichica-Lower 2/16/20 2145 48.0   0.6 90   11 45.2   2.9 0.8   0.5 NNE | 17 2.5   0.7 0.00 0.00 44.4   6.0 66.3   1.5
Max     52.9 100 48.7 8.6 - 14.2 0.00 0.00 45.5 72.2
Avg     47.3 92 45.6 2.4 - 4.4 0.00 - - -
Min     43.1 74 42.9 0.8 - 1.8 0.00 0.00 34.7 62.2